Portada
METAR-TAF:

METAR-TAF

Aeroports :

Anchorage, Alaska, Estats Units d'Amèrica

latitud: 61-10-28N, longitud: 149-59-46W, altitud: 44 m

Observació

L'informe es va fer fa 14 minuts, a les 04:53 UTC
Vent 6 kt del Oest
Temperatura 6°C
Humitat 52%
Pressió 1018 hPa
Visibilitat: 16.1 km
Escasses núvols a una alçada de 5000 ft
Núvols disperses a una alçada de 10000 ft
Cel ennuvolat a una alçada de 16000 ft

METAR: PANC 200453Z 26006KT 10SM FEW050 SCT100 BKN160 06/M03 A3005 RMK AO2 SLP178 ACSL S-W T00561028

Hora: 21:07 (05:07 UTC)

Pronòstic

L'informe es va fer fa 5 hores i 31 minuts, a les 23:36 UTC
Pronòstic vàlid del 20 a les 00 UTC al 21 a les 06 UTC
Vent 6 kt del Nord/Nord-Oest
Visibilitat: 10 km
Escasses núvols a una alçada de 5000 ft
Cel ennuvolat a una alçada de 12000 ft
A partir de les 20 a les 1800 UTC
Vent 5 kt del Nord/Nord-Est
Visibilitat: 10 km
Escasses núvols a una alçada de 12000 ft

TAF: PANC 192336Z 2000/2106 33006KT P6SM FEW050 BKN120 FM201800 02005KT P6SM FEW120

Observacions i pronòstics meteorològics de més de 4000 aeroports (METAR i TAF).

Les estacions disponibles són els punts grocs i vermells al mapa.

Posi el ratolí al punt desitjat per veure el nom de l'estació.

Feu clic per veure les observacions i els pronòstics meteorològics.

Per canviar el mapa: feu clic els botons verds amb una creu de color negre per apropar; al botó verd amb un guió per allunyar la imatge; o en les fletxes verdes per a mapes adjacents.


METAR-TAF: